History for Boise, ID


Lat: N 43 ° 36 ' 50 '' ( 43.614 ° )
Lon: W 116 ° 12 ' 14 '' ( -116.204 ° )

Elevation: 2847 ft
Data type:
Distance calculator

 
 

Select another date:

« Previous Day   |   Next Day »

Daily Statistics
  Current High Low Average
Temperature - 46.0 °F 35.0 °F 40.5 °F
Dew Point - 38.0 °F 32.0 °F 33.2 °F
Humidity % 89% 72% 81%
Wind Speed - 5.0mph - 1.9mph
Wind Gust - 11.0mph - -
Wind - - ESE
Pressure - 27.25in 27.14in -
Precipitation 0.23in      

Tabular Data for December 20, 2014
Time Temperature Dew Point Pressure Wind Wind Speed Wind Gust Humidity Hourly Precipitation
00:02 36.0 °F 33.0 °F 27.25in North 1.0mph 4.0mph 89% 0.00in
00:22 36.0 °F 33.0 °F 27.25in North 1.0mph 4.0mph 89% 0.00in
00:32 36.0 °F 33.0 °F 27.25in North 1.0mph 4.0mph 89% 0.00in
00:42 36.0 °F 33.0 °F 27.25in North 1.0mph 4.0mph 89% 0.00in
00:52 36.0 °F 33.0 °F 27.25in North 1.0mph 4.0mph 89% 0.00in
01:01 35.0 °F 32.0 °F 27.24in North 2.0mph 4.0mph 89% 0.00in
01:22 35.0 °F 32.0 °F 27.24in North 2.0mph 4.0mph 89% 0.00in
01:32 35.0 °F 32.0 °F 27.24in North 2.0mph 4.0mph 89% 0.00in
01:43 35.0 °F 32.0 °F 27.24in North 2.0mph 4.0mph 89% 0.00in
01:52 35.0 °F 32.0 °F 27.24in North 2.0mph 4.0mph 89% 0.00in
03:01 39.0 °F 35.0 °F 27.23in North 0.0mph 2.0mph 87% 0.00in
03:23 39.0 °F 35.0 °F 27.23in North 0.0mph 2.0mph 87% 0.00in
03:33 39.0 °F 35.0 °F 27.23in North 0.0mph 2.0mph 87% 0.00in
03:43 39.0 °F 35.0 °F 27.23in North 0.0mph 2.0mph 87% 0.00in
03:53 39.0 °F 35.0 °F 27.23in North 0.0mph 2.0mph 87% 0.00in
04:01 40.0 °F 35.0 °F 27.21in SE 2.0mph 5.0mph 83% 0.00in
04:22 40.0 °F 35.0 °F 27.21in SE 2.0mph 5.0mph 83% 0.00in
04:33 40.0 °F 35.0 °F 27.21in SE 2.0mph 5.0mph 83% 0.00in
04:42 40.0 °F 35.0 °F 27.21in SE 2.0mph 5.0mph 83% 0.00in
04:52 40.0 °F 35.0 °F 27.21in SE 2.0mph 5.0mph 83% 0.00in
05:22 44.0 °F 36.0 °F 27.20in SE 5.0mph 11.0mph 72% 0.00in
05:32 44.0 °F 36.0 °F 27.20in SE 5.0mph 11.0mph 72% 0.00in
05:42 44.0 °F 36.0 °F 27.20in SE 5.0mph 11.0mph 72% 0.00in
05:52 44.0 °F 36.0 °F 27.20in SE 5.0mph 11.0mph 72% 0.00in
07:01 42.0 °F 36.0 °F 27.18in East 1.0mph 4.0mph 79% 0.00in
07:22 42.0 °F 36.0 °F 27.18in East 1.0mph 4.0mph 79% 0.00in
07:32 42.0 °F 36.0 °F 27.18in East 1.0mph 4.0mph 79% 0.00in
07:42 42.0 °F 36.0 °F 27.18in East 1.0mph 4.0mph 79% 0.00in
07:52 42.0 °F 36.0 °F 27.18in East 1.0mph 4.0mph 79% 0.00in
08:01 39.0 °F -99.9 °F 27.20in North 0.0mph 1.0mph 88% 0.03in
08:22 39.0 °F 36.0 °F 27.20in North 0.0mph 1.0mph 88% 0.03in
08:38 39.0 °F 36.0 °F 27.20in North 0.0mph 1.0mph 88% 0.03in
08:51 - -99.9 °F 27.20in North 0.0mph 1.0mph 88% 0.03in
09:00 39.0 °F -99.9 °F 27.20in North 0.0mph 1.0mph 88% 0.03in
10:01 41.0 °F 37.0 °F 27.19in East 4.0mph 9.0mph 86% 0.01in
10:10 - -99.9 °F 27.19in ESE 3.0mph 9.0mph -% 0.05in
10:20 - -99.9 °F 27.19in ESE 3.0mph 9.0mph 86% 0.05in
10:30 41.0 °F 37.0 °F 27.19in East 4.0mph 9.0mph 86% 0.01in
10:44 41.0 °F 37.0 °F 27.19in East 4.0mph 9.0mph 86% 0.01in
10:53 41.0 °F 37.0 °F 27.19in East 4.0mph 9.0mph 86% 0.01in
11:01 42.0 °F 37.0 °F 27.19in SE 5.0mph 10.0mph 83% 0.01in
11:23 42.0 °F 37.0 °F 27.19in SE 5.0mph 10.0mph 83% 0.01in
11:32 42.0 °F 37.0 °F 27.19in SE 5.0mph 10.0mph 83% 0.01in
11:42 42.0 °F 37.0 °F 27.19in SE 5.0mph 10.0mph 83% 0.01in
11:52 42.0 °F 37.0 °F 27.19in SE 5.0mph 10.0mph 83% 0.01in
12:01 44.0 °F 38.0 °F 27.16in ESE 2.0mph 8.0mph 79% 0.00in
12:23 44.0 °F 38.0 °F 27.16in ESE 2.0mph 8.0mph 79% 0.00in
12:33 44.0 °F 38.0 °F 27.16in ESE 2.0mph 8.0mph 79% 0.00in
12:43 44.0 °F 38.0 °F 27.16in ESE 2.0mph 8.0mph 79% 0.00in
12:53 44.0 °F 38.0 °F 27.16in ESE 2.0mph 8.0mph 79% 0.00in
13:01 45.0 °F 37.0 °F 27.14in SSE 2.0mph 6.0mph 73% 0.00in
13:22 45.0 °F 37.0 °F 27.14in SSE 2.0mph 6.0mph 73% 0.00in
13:32 45.0 °F 37.0 °F 27.14in SSE 2.0mph 6.0mph 73% 0.00in
13:42 45.0 °F 37.0 °F 27.14in SSE 2.0mph 6.0mph 73% 0.00in
13:52 45.0 °F 37.0 °F 27.14in SSE 2.0mph 6.0mph 73% 0.00in
14:01 46.0 °F 38.0 °F 27.14in ENE 0.0mph 8.0mph 74% 0.00in
14:22 46.0 °F 38.0 °F 27.14in ENE 0.0mph 8.0mph 74% 0.00in
14:34 46.0 °F 38.0 °F 27.14in ENE 0.0mph 8.0mph 74% 0.00in
14:43 46.0 °F 38.0 °F 27.14in ENE 0.0mph 8.0mph 74% 0.00in
14:54 46.0 °F 38.0 °F 27.14in ENE 0.0mph 8.0mph 74% 0.00in
16:00 42.0 °F 38.0 °F 27.14in ESE 1.0mph 6.0mph 85% 0.07in
16:22 42.0 °F 38.0 °F 27.14in ESE 1.0mph 6.0mph 85% 0.07in
16:33 42.0 °F 38.0 °F 27.14in ESE 1.0mph 6.0mph 85% 0.07in
16:43 42.0 °F 38.0 °F 27.14in ESE 1.0mph 6.0mph 85% 0.07in
16:53 42.0 °F 38.0 °F 27.14in ESE 1.0mph 6.0mph 85% 0.07in

Powered by the Weather Underground, Inc.